createdAt,value
2023-09-27T00:02:14.805Z,57.49
2023-09-27T00:04:41.933Z,58.04
2023-09-27T00:07:08.850Z,58.76
2023-09-27T00:09:36.252Z,59.19
2023-09-27T00:12:07.001Z,57.47
2023-09-27T00:14:34.040Z,58.59
2023-09-27T00:17:01.013Z,57.87
2023-09-27T00:19:28.014Z,56.68
2023-09-27T00:21:54.917Z,57.56
2023-09-27T00:24:21.850Z,57.19
2023-09-27T00:26:48.843Z,60.70
2023-09-27T00:29:15.772Z,59.19
2023-09-27T00:31:42.744Z,56.91
2023-09-27T00:34:09.644Z,56.91
2023-09-27T00:36:36.579Z,58.47
2023-09-27T00:39:03.550Z,58.64
2023-09-27T00:41:31.066Z,55.12
2023-09-27T00:43:58.082Z,55.45
2023-09-27T00:46:25.111Z,57.80
2023-09-27T00:48:53.180Z,59.37
2023-09-27T00:51:20.280Z,59.32
2023-09-27T00:53:48.715Z,58.19
2023-09-27T00:56:15.681Z,57.04
2023-09-27T00:58:43.137Z,58.19
2023-09-27T01:01:10.395Z,58.68
2023-09-27T01:03:38.070Z,55.95
2023-09-27T01:06:05.127Z,55.82
2023-09-27T01:08:32.197Z,56.11
2023-09-27T01:10:59.320Z,56.72
2023-09-27T01:13:26.404Z,57.15
2023-09-27T01:15:53.319Z,57.95
2023-09-27T01:18:20.345Z,58.74
2023-09-27T01:20:47.381Z,60.17
2023-09-27T01:23:14.331Z,59.56
2023-09-27T01:25:41.271Z,59.30
2023-09-27T01:28:10.063Z,60.14
2023-09-27T01:30:37.895Z,57.86
2023-09-27T01:33:06.945Z,57.73
2023-09-27T01:35:38.505Z,59.09
2023-09-27T01:38:06.497Z,56.00
2023-09-27T01:40:36.324Z,57.73
2023-09-27T01:43:04.551Z,56.64
2023-09-27T01:45:32.315Z,55.53
2023-09-27T01:48:00.551Z,57.34
2023-09-27T01:50:28.366Z,56.21
2023-09-27T01:52:56.786Z,55.43
2023-09-27T01:55:24.826Z,57.73
2023-09-27T01:57:52.102Z,58.91
2023-09-27T02:00:20.650Z,59.07
2023-09-27T02:02:51.770Z,59.05
2023-09-27T02:05:19.243Z,58.64
2023-09-27T02:07:46.322Z,56.44
2023-09-27T02:10:13.417Z,55.46
2023-09-27T02:12:40.690Z,53.97
2023-09-27T02:15:09.038Z,56.52
2023-09-27T02:17:39.123Z,55.38
2023-09-27T02:20:11.485Z,56.38
2023-09-27T02:22:39.484Z,56.95
2023-09-27T02:25:10.625Z,57.31
2023-09-27T02:27:38.183Z,59.29
2023-09-27T02:30:07.781Z,58.97
2023-09-27T02:32:35.472Z,58.98
2023-09-27T02:35:02.562Z,58.47
2023-09-27T02:37:29.618Z,58.67
2023-09-27T02:39:57.503Z,58.05
2023-09-27T02:42:24.417Z,53.20
2023-09-27T02:44:51.962Z,55.27
2023-09-27T02:47:18.950Z,55.71
2023-09-27T02:49:45.830Z,56.50
2023-09-27T02:52:12.858Z,56.13
2023-09-27T02:54:40.481Z,54.83
2023-09-27T02:57:07.395Z,55.54
2023-09-27T02:59:34.416Z,55.45
2023-09-27T03:02:01.492Z,55.90
2023-09-27T03:04:28.793Z,57.07
2023-09-27T03:06:56.537Z,56.32
2023-09-27T03:09:23.490Z,58.25
2023-09-27T03:11:50.499Z,56.52
2023-09-27T03:14:17.543Z,55.85
2023-09-27T03:16:45.186Z,56.98
2023-09-27T03:19:12.077Z,58.72
2023-09-27T03:21:39.029Z,57.88
2023-09-27T03:24:06.693Z,57.42
2023-09-27T03:26:34.176Z,56.97
2023-09-27T03:29:01.182Z,58.53
2023-09-27T03:31:28.201Z,57.42
2023-09-27T03:33:55.107Z,58.86
2023-09-27T03:36:22.043Z,58.52
2023-09-27T03:38:49.005Z,59.49
2023-09-27T03:41:15.927Z,58.92
2023-09-27T03:43:43.131Z,58.38
2023-09-27T03:46:10.076Z,59.83
2023-09-27T03:48:37.968Z,59.79
2023-09-27T03:51:05.020Z,58.63
2023-09-27T03:53:33.229Z,56.88
2023-09-27T03:56:00.296Z,57.65
2023-09-27T03:58:27.469Z,58.68
2023-09-27T04:00:54.391Z,56.91
2023-09-27T04:03:21.650Z,56.51
2023-09-27T04:05:48.659Z,59.41
2023-09-27T04:08:15.629Z,64.43
2023-09-27T04:10:42.556Z,61.27
2023-09-27T04:13:09.478Z,57.75
2023-09-27T04:15:37.032Z,57.24
2023-09-27T04:18:05.031Z,59.35
2023-09-27T04:20:34.344Z,58.77
2023-09-27T04:23:04.907Z,58.71
2023-09-27T04:25:31.851Z,56.26
2023-09-27T04:27:58.789Z,56.14
2023-09-27T04:30:26.051Z,56.83
2023-09-27T04:32:53.318Z,57.20
2023-09-27T04:35:21.434Z,57.44
2023-09-27T04:37:48.611Z,57.52
2023-09-27T04:40:15.940Z,57.42
2023-09-27T04:42:44.039Z,57.05
2023-09-27T04:45:13.216Z,55.01
2023-09-27T04:47:42.016Z,53.18
2023-09-27T04:50:12.249Z,54.35
2023-09-27T04:52:39.939Z,57.69
2023-09-27T04:55:08.614Z,62.51
2023-09-27T04:57:36.071Z,61.21
2023-09-27T05:00:04.732Z,60.71
2023-09-27T05:02:31.893Z,58.96
2023-09-27T05:04:58.982Z,57.42
2023-09-27T05:07:25.973Z,57.14
2023-09-27T05:09:53.459Z,59.62
2023-09-27T05:12:20.365Z,57.22
2023-09-27T05:14:47.303Z,62.43
2023-09-27T05:17:14.251Z,65.46
2023-09-27T05:19:46.096Z,61.31
2023-09-27T05:22:14.079Z,61.40
2023-09-27T05:24:40.993Z,57.72
2023-09-27T05:27:08.751Z,54.67
2023-09-27T05:29:36.043Z,52.78
2023-09-27T05:32:03.557Z,50.72
2023-09-27T05:34:31.866Z,51.93
2023-09-27T05:36:59.211Z,49.00
2023-09-27T05:39:26.512Z,46.39
2023-09-27T05:41:56.412Z,45.48
2023-09-27T05:44:23.642Z,43.12
2023-09-27T05:46:50.630Z,43.27
2023-09-27T05:49:18.229Z,43.72
2023-09-27T05:51:45.154Z,43.90
2023-09-27T05:54:12.176Z,43.49
2023-09-27T05:56:39.548Z,41.99
2023-09-27T05:59:10.233Z,40.09
2023-09-27T06:01:37.570Z,39.44
2023-09-27T06:04:05.241Z,38.36
2023-09-27T06:06:32.187Z,37.38
2023-09-27T06:08:59.910Z,36.60
2023-09-27T06:11:27.289Z,34.91
2023-09-27T06:13:54.194Z,35.41
2023-09-27T06:16:21.400Z,35.59
2023-09-27T06:18:48.507Z,34.22
2023-09-27T06:21:15.426Z,33.10
2023-09-27T06:23:42.522Z,31.40
2023-09-27T06:26:10.439Z,30.88
2023-09-27T06:28:40.621Z,30.60
2023-09-27T06:31:07.795Z,29.69
2023-09-27T06:33:43.548Z,30.75
2023-09-27T06:36:11.650Z,31.48
2023-09-27T06:38:38.798Z,36.11
2023-09-27T06:41:05.750Z,36.86
2023-09-27T06:43:33.007Z,37.60
2023-09-27T06:46:02.798Z,35.92
2023-09-27T06:48:30.529Z,36.88
2023-09-27T06:50:57.675Z,37.89
2023-09-27T06:53:27.108Z,36.54
2023-09-27T06:55:56.950Z,36.84
2023-09-27T06:58:26.561Z,40.22
2023-09-27T07:00:53.990Z,43.14
2023-09-27T07:03:26.678Z,42.04
2023-09-27T07:05:54.064Z,43.52
2023-09-27T07:08:21.810Z,44.90
2023-09-27T07:10:48.927Z,47.25
2023-09-27T07:13:16.380Z,49.25
2023-09-27T07:15:47.465Z,47.85
2023-09-27T07:18:14.807Z,47.61
2023-09-27T07:20:43.364Z,47.95
2023-09-27T07:23:16.220Z,48.87
2023-09-27T07:25:46.360Z,46.88
2023-09-27T07:28:13.959Z,46.65
2023-09-27T07:30:41.157Z,47.09
2023-09-27T07:33:11.108Z,47.52
2023-09-27T07:35:43.536Z,49.40
2023-09-27T07:38:12.230Z,48.29
2023-09-27T07:40:39.520Z,46.23
2023-09-27T07:43:06.721Z,43.52
2023-09-27T07:45:34.582Z,41.88
2023-09-27T07:48:02.452Z,42.14
2023-09-27T07:50:31.393Z,41.37
2023-09-27T07:53:05.030Z,43.05
2023-09-27T07:55:35.356Z,43.70
2023-09-27T07:58:05.165Z,44.37
2023-09-27T08:00:34.386Z,42.65
2023-09-27T08:03:02.025Z,43.44
2023-09-27T08:05:29.291Z,41.61
2023-09-27T08:07:56.369Z,40.86
2023-09-27T08:10:23.942Z,40.36
2023-09-27T08:12:51.135Z,41.45
2023-09-27T08:15:19.519Z,42.99
2023-09-27T08:17:49.040Z,43.51
2023-09-27T08:20:16.556Z,42.76
2023-09-27T08:22:43.651Z,42.99
2023-09-27T08:25:18.310Z,45.69
2023-09-27T08:27:46.018Z,42.53
2023-09-27T08:30:13.770Z,42.26
2023-09-27T08:32:42.750Z,42.32
2023-09-27T08:35:11.098Z,43.37
2023-09-27T08:37:38.205Z,43.84
2023-09-27T08:40:06.868Z,43.22
2023-09-27T08:42:35.193Z,42.69
2023-09-27T08:45:02.503Z,41.50
2023-09-27T08:47:31.093Z,42.36
2023-09-27T08:49:59.654Z,40.83
2023-09-27T08:52:28.451Z,43.38
2023-09-27T08:54:55.414Z,43.56
2023-09-27T08:57:23.931Z,44.11
2023-09-27T08:59:51.287Z,41.52
2023-09-27T09:02:18.409Z,39.60
2023-09-27T09:04:45.330Z,39.92
2023-09-27T09:07:13.245Z,40.08
2023-09-27T09:09:41.938Z,39.46
2023-09-27T09:12:13.256Z,38.33
2023-09-27T09:14:44.912Z,39.25
2023-09-27T09:17:12.451Z,38.93
2023-09-27T09:19:44.814Z,38.64
2023-09-27T09:22:14.505Z,37.05
2023-09-27T09:24:43.477Z,38.28
2023-09-27T09:27:13.650Z,36.81
2023-09-27T09:29:51.023Z,35.35
2023-09-27T09:32:21.030Z,39.33
2023-09-27T09:34:49.691Z,38.54
2023-09-27T09:37:21.430Z,38.82
2023-09-27T09:39:50.442Z,36.33
2023-09-27T09:42:36.017Z,36.75
2023-09-27T09:45:08.354Z,36.69
2023-09-27T09:47:38.649Z,35.61
2023-09-27T09:50:07.811Z,35.42
2023-09-27T09:52:36.941Z,36.25
2023-09-27T09:55:22.570Z,35.09
2023-09-27T09:58:01.006Z,36.02
2023-09-27T10:00:28.564Z,36.83
2023-09-27T10:03:04.079Z,38.47
2023-09-27T10:05:39.561Z,38.20
2023-09-27T10:08:07.674Z,37.73
2023-09-27T10:10:36.178Z,34.58
2023-09-27T10:13:08.379Z,35.69
2023-09-27T10:15:35.800Z,33.84
2023-09-27T10:22:07.067Z,32.82
2023-09-27T10:25:20.727Z,32.34
2023-09-27T10:28:13.696Z,31.66
2023-09-27T10:30:43.973Z,32.86
2023-09-27T10:33:31.836Z,34.11
2023-09-27T10:36:04.690Z,31.83
2023-09-27T10:38:43.931Z,29.78
2023-09-27T10:41:34.061Z,31.97
2023-09-27T10:44:02.206Z,29.01
2023-09-27T10:46:50.214Z,28.82
2023-09-27T10:49:26.467Z,27.67
2023-09-27T10:52:05.955Z,27.58
2023-09-27T10:54:36.537Z,29.46
2023-09-27T10:57:26.596Z,28.80
2023-09-27T10:59:53.628Z,27.98
2023-09-27T11:02:33.125Z,27.96
2023-09-27T11:05:00.116Z,27.08
2023-09-27T11:07:43.814Z,26.93
2023-09-27T11:10:11.307Z,27.29
2023-09-27T11:12:38.564Z,30.04
2023-09-27T11:15:05.958Z,29.17
2023-09-27T11:17:33.005Z,27.74
2023-09-27T11:20:12.328Z,26.91
2023-09-27T11:22:39.281Z,26.89
2023-09-27T11:25:26.948Z,26.77
2023-09-27T11:27:54.036Z,26.97
2023-09-27T11:30:29.502Z,28.23
2023-09-27T11:32:56.858Z,30.70
2023-09-27T11:35:25.766Z,30.79
2023-09-27T11:38:13.660Z,28.50
2023-09-27T11:40:44.147Z,29.60
2023-09-27T11:43:11.717Z,29.35
2023-09-27T11:45:48.986Z,29.43
2023-09-27T11:48:17.276Z,27.51
2023-09-27T11:50:44.391Z,27.26
2023-09-27T11:53:12.352Z,28.10
2023-09-27T11:55:39.570Z,29.32
2023-09-27T11:58:06.512Z,27.86
2023-09-27T12:00:33.663Z,29.03
2023-09-27T12:03:00.699Z,28.50
2023-09-27T12:05:28.186Z,29.54
2023-09-27T12:07:56.583Z,29.31
2023-09-27T12:10:23.771Z,29.06
2023-09-27T12:12:50.794Z,26.61
2023-09-27T12:15:17.810Z,27.17
2023-09-27T12:17:45.130Z,24.50
2023-09-27T12:20:26.624Z,24.00
2023-09-27T12:22:59.504Z,24.67
2023-09-27T12:25:28.350Z,22.08
2023-09-27T12:27:55.389Z,22.06
2023-09-27T12:30:22.324Z,23.36
2023-09-27T12:32:49.365Z,22.76
2023-09-27T12:35:16.524Z,24.45
2023-09-27T12:37:43.440Z,25.56
2023-09-27T12:40:10.952Z,26.28
2023-09-27T12:42:37.847Z,27.04
2023-09-27T12:45:05.342Z,29.35
2023-09-27T12:47:33.373Z,28.29
2023-09-27T12:50:04.969Z,27.50
2023-09-27T12:52:32.469Z,28.08
2023-09-27T12:55:47.442Z,27.92
2023-09-27T12:58:14.990Z,28.34
2023-09-27T13:00:42.846Z,28.67
2023-09-27T13:03:10.162Z,28.75
2023-09-27T13:05:38.386Z,26.97
2023-09-27T13:08:06.291Z,25.61
2023-09-27T13:10:33.963Z,27.51
2023-09-27T13:13:00.890Z,27.41
2023-09-27T13:15:27.820Z,28.04
2023-09-27T13:17:55.212Z,27.35
2023-09-27T13:20:22.349Z,27.21
2023-09-27T13:22:50.376Z,28.27
2023-09-27T13:25:18.177Z,26.31
2023-09-27T13:27:45.560Z,27.05
2023-09-27T13:30:25.604Z,25.43
2023-09-27T13:33:00.980Z,27.07
2023-09-27T13:35:28.064Z,27.05
2023-09-27T13:37:54.976Z,26.57
2023-09-27T13:40:21.912Z,26.91
2023-09-27T13:42:48.830Z,26.54
2023-09-27T13:45:15.938Z,27.70
2023-09-27T13:47:43.150Z,27.75
2023-09-27T13:50:10.677Z,28.24
2023-09-27T13:52:38.190Z,27.44
2023-09-27T13:55:05.550Z,27.69
2023-09-27T13:57:33.155Z,29.58
2023-09-27T14:00:00.411Z,30.93
2023-09-27T14:02:27.455Z,29.84
2023-09-27T14:04:55.146Z,29.23
2023-09-27T14:07:22.246Z,29.37
2023-09-27T14:09:49.906Z,29.94
2023-09-27T14:12:17.052Z,30.34
2023-09-27T14:14:45.475Z,30.87
2023-09-27T14:17:13.144Z,30.40
2023-09-27T14:19:40.792Z,28.63
2023-09-27T14:22:08.427Z,30.11
2023-09-27T14:24:36.056Z,30.64
2023-09-27T14:27:03.593Z,30.82
2023-09-27T14:29:35.782Z,31.32
2023-09-27T14:32:07.314Z,31.53
2023-09-27T14:34:42.751Z,31.18
2023-09-27T14:37:23.799Z,30.54
2023-09-27T14:39:50.717Z,31.45
2023-09-27T14:42:17.621Z,33.44
2023-09-27T14:44:44.536Z,34.27
2023-09-27T14:47:11.502Z,34.94
2023-09-27T14:49:38.716Z,33.31
2023-09-27T14:52:05.736Z,33.67
2023-09-27T14:54:32.590Z,34.92
2023-09-27T14:57:00.225Z,35.29
2023-09-27T14:59:27.221Z,36.26
2023-09-27T15:01:59.071Z,34.41
2023-09-27T15:04:26.797Z,34.30
2023-09-27T15:06:54.316Z,35.27
2023-09-27T15:09:21.418Z,36.27
2023-09-27T15:11:48.315Z,36.86
2023-09-27T15:14:15.446Z,37.70
2023-09-27T15:16:42.500Z,36.80
2023-09-27T15:19:09.742Z,37.51
2023-09-27T15:21:37.768Z,37.49
2023-09-27T15:24:04.805Z,38.46
2023-09-27T15:26:54.729Z,37.77
2023-09-27T15:29:21.620Z,38.93
2023-09-27T15:31:48.611Z,38.51
2023-09-27T15:34:49.549Z,39.19
2023-09-27T15:37:35.296Z,39.65
2023-09-27T15:40:02.182Z,40.11
2023-09-27T15:42:29.036Z,39.08
2023-09-27T15:44:58.495Z,40.09
2023-09-27T15:47:25.565Z,40.70
2023-09-27T15:49:52.617Z,41.37
2023-09-27T15:52:19.622Z,41.16
2023-09-27T15:54:46.497Z,41.46
2023-09-27T15:57:13.428Z,41.85
2023-09-27T15:59:40.314Z,41.78
2023-09-27T16:02:07.382Z,41.71
2023-09-27T16:04:42.170Z,42.16
2023-09-27T16:07:16.926Z,40.55
2023-09-27T16:09:43.856Z,40.80
2023-09-27T16:12:12.571Z,40.74
2023-09-27T16:14:39.465Z,39.83
2023-09-27T16:17:06.436Z,40.48
2023-09-27T16:19:33.395Z,39.81
2023-09-27T16:22:00.312Z,40.32
2023-09-27T16:24:27.897Z,39.43
2023-09-27T16:26:54.891Z,38.66
2023-09-27T16:29:21.764Z,38.95
2023-09-27T16:31:49.535Z,39.90
2023-09-27T16:34:16.591Z,39.22
2023-09-27T16:36:45.725Z,38.71
2023-09-27T16:39:12.916Z,38.72
2023-09-27T16:41:39.860Z,39.42
2023-09-27T16:44:08.059Z,39.64
2023-09-27T16:46:37.249Z,39.79
2023-09-27T16:49:05.230Z,41.24
2023-09-27T16:51:32.496Z,40.81
2023-09-27T16:53:59.456Z,40.46
2023-09-27T16:56:28.456Z,41.32
2023-09-27T16:58:55.466Z,41.62
2023-09-27T17:01:23.048Z,42.71
2023-09-27T17:03:50.250Z,43.52
2023-09-27T17:06:19.695Z,43.70
2023-09-27T17:08:46.648Z,41.97
2023-09-27T17:11:13.521Z,41.72
2023-09-27T17:13:40.422Z,41.82
2023-09-27T17:16:08.614Z,43.86
2023-09-27T17:18:35.673Z,42.97
2023-09-27T17:21:02.647Z,43.19
2023-09-27T17:23:31.916Z,42.83
2023-09-27T17:25:59.001Z,42.89
2023-09-27T17:28:31.062Z,44.19
2023-09-27T17:30:58.076Z,44.72
2023-09-27T17:33:25.139Z,44.64
2023-09-27T17:35:52.110Z,46.00
2023-09-27T17:38:20.221Z,45.94
2023-09-27T17:40:48.858Z,45.61
2023-09-27T17:43:16.335Z,45.84
2023-09-27T17:45:43.668Z,46.02
2023-09-27T17:48:10.641Z,46.22
2023-09-27T17:50:37.753Z,48.28
2023-09-27T17:53:06.005Z,48.34
2023-09-27T17:55:33.113Z,47.68
2023-09-27T17:58:00.042Z,47.81
2023-09-27T18:00:27.508Z,47.08
2023-09-27T18:02:54.596Z,46.88
2023-09-27T18:05:21.683Z,46.36
2023-09-27T18:07:48.634Z,47.78
2023-09-27T18:10:15.605Z,47.63
2023-09-27T18:12:42.570Z,47.22
2023-09-27T18:15:25.249Z,51.70
2023-09-27T18:17:55.903Z,50.11
2023-09-27T18:20:23.025Z,50.71
2023-09-27T18:22:50.090Z,49.75
2023-09-27T18:25:17.081Z,50.33
2023-09-27T18:27:44.002Z,49.24
2023-09-27T18:30:11.395Z,51.28
2023-09-27T18:32:38.750Z,50.98
2023-09-27T18:35:06.667Z,52.03
2023-09-27T18:37:34.323Z,52.22
2023-09-27T18:40:03.566Z,52.90
2023-09-27T18:42:30.479Z,52.63
2023-09-27T18:44:57.383Z,52.79
2023-09-27T18:47:24.534Z,53.59
2023-09-27T18:49:52.138Z,53.39
2023-09-27T18:52:22.471Z,53.90
2023-09-27T18:54:53.260Z,54.81
2023-09-27T18:57:22.063Z,55.77
2023-09-27T18:59:52.469Z,56.03
2023-09-27T19:02:19.404Z,55.46
2023-09-27T19:04:46.366Z,55.49
2023-09-27T19:07:13.266Z,55.94
2023-09-27T19:09:40.175Z,54.88
2023-09-27T19:12:07.334Z,55.02
2023-09-27T19:14:34.528Z,55.25
2023-09-27T19:17:01.520Z,55.51
2023-09-27T19:19:28.430Z,53.56
2023-09-27T19:21:55.322Z,53.01
2023-09-27T19:24:22.217Z,53.12
2023-09-27T19:26:53.046Z,54.55
2023-09-27T19:29:20.035Z,54.34
2023-09-27T19:31:47.145Z,54.73
2023-09-27T19:34:16.596Z,54.81
2023-09-27T19:36:45.461Z,54.73
2023-09-27T19:39:13.784Z,56.82
2023-09-27T19:41:45.023Z,55.58
2023-09-27T19:44:12.303Z,54.31
2023-09-27T19:46:39.217Z,56.47
2023-09-27T19:49:06.216Z,57.11
2023-09-27T19:51:33.189Z,57.25
2023-09-27T19:54:03.289Z,57.54
2023-09-27T19:56:30.243Z,54.05
2023-09-27T19:58:57.290Z,53.95
2023-09-27T20:01:29.165Z,53.73
2023-09-27T20:03:56.869Z,53.25
2023-09-27T20:06:24.528Z,54.53
2023-09-27T20:08:51.571Z,55.11
2023-09-27T20:11:18.590Z,54.88
2023-09-27T20:13:45.513Z,55.28
2023-09-27T20:16:12.432Z,56.55
2023-09-27T20:18:39.350Z,57.38
2023-09-27T20:21:06.521Z,57.48
2023-09-27T20:23:33.708Z,59.88
2023-09-27T20:26:03.747Z,59.27
2023-09-27T20:28:30.675Z,61.72
2023-09-27T20:30:57.588Z,61.15
2023-09-27T20:33:25.196Z,59.98
2023-09-27T20:35:52.906Z,59.54
2023-09-27T20:38:19.757Z,61.55
2023-09-27T20:40:46.656Z,60.13
2023-09-27T20:43:13.578Z,59.19
2023-09-27T20:45:43.468Z,57.80
2023-09-27T20:48:10.514Z,57.32
2023-09-27T20:50:37.608Z,57.56
2023-09-27T20:53:04.685Z,55.86
2023-09-27T20:55:32.050Z,55.68
2023-09-27T20:58:02.671Z,55.44
2023-09-27T21:00:29.667Z,55.20
2023-09-27T21:02:57.068Z,55.53
2023-09-27T21:05:24.016Z,55.80
2023-09-27T21:07:51.438Z,55.59
2023-09-27T21:10:18.421Z,55.78
2023-09-27T21:12:45.290Z,56.07
2023-09-27T21:15:12.271Z,57.89
2023-09-27T21:17:39.162Z,57.15
2023-09-27T21:20:06.639Z,58.11
2023-09-27T21:22:33.598Z,58.58
2023-09-27T21:25:00.628Z,60.05
2023-09-27T21:27:27.521Z,59.67
2023-09-27T21:29:54.372Z,58.17
2023-09-27T21:32:22.326Z,59.90
2023-09-27T21:34:49.622Z,59.41
2023-09-27T21:37:16.587Z,56.49
2023-09-27T21:39:43.452Z,56.07
2023-09-27T21:42:10.326Z,57.22
2023-09-27T21:44:37.195Z,58.29
2023-09-27T21:47:05.013Z,57.78
2023-09-27T21:49:31.924Z,57.39
2023-09-27T21:51:58.823Z,57.75
2023-09-27T21:54:25.688Z,58.65
2023-09-27T21:56:52.582Z,58.32
2023-09-27T21:59:19.531Z,58.42
2023-09-27T22:01:46.751Z,59.60
2023-09-27T22:04:13.640Z,59.38
2023-09-27T22:06:40.530Z,57.82
2023-09-27T22:09:07.843Z,57.68
2023-09-27T22:11:34.674Z,57.83
2023-09-27T22:14:06.104Z,57.66
2023-09-27T22:16:34.039Z,55.89
2023-09-27T22:19:12.109Z,56.04
2023-09-27T22:21:44.141Z,57.35
2023-09-27T22:24:14.422Z,59.31
2023-09-27T22:26:42.831Z,59.88
2023-09-27T22:29:10.440Z,60.23
2023-09-27T22:31:40.935Z,60.18
2023-09-27T22:34:26.517Z,59.71
2023-09-27T22:36:53.914Z,60.73
2023-09-27T22:39:21.002Z,60.02
2023-09-27T22:41:49.868Z,57.71
2023-09-27T22:44:20.745Z,58.78
2023-09-27T22:46:51.883Z,59.51
2023-09-27T22:49:20.196Z,60.13
2023-09-27T22:51:47.542Z,60.61
2023-09-27T22:54:19.280Z,60.03
2023-09-27T22:56:46.976Z,58.99
2023-09-27T22:59:14.743Z,58.99
2023-09-27T23:01:44.623Z,59.29
2023-09-27T23:04:15.553Z,58.48
2023-09-27T23:07:01.794Z,59.01
2023-09-27T23:09:35.566Z,62.36
2023-09-27T23:12:32.890Z,61.95
2023-09-27T23:15:13.594Z,58.79
2023-09-27T23:18:09.709Z,59.97
2023-09-27T23:20:36.654Z,60.50
2023-09-27T23:23:13.746Z,58.15
2023-09-27T23:25:46.870Z,59.61
2023-09-27T23:28:18.802Z,59.67
2023-09-27T23:30:51.459Z,59.41
2023-09-27T23:33:19.052Z,58.95
2023-09-27T23:35:46.344Z,59.39
2023-09-27T23:38:32.121Z,56.45
2023-09-27T23:40:59.827Z,56.09
2023-09-27T23:43:41.261Z,56.62
2023-09-27T23:46:15.277Z,55.75
2023-09-27T23:48:43.217Z,56.01
2023-09-27T23:51:10.124Z,57.88
2023-09-27T23:53:37.443Z,59.04
2023-09-27T23:56:07.960Z,57.20
2023-09-27T23:58:35.776Z,57.88
